sensor_id;sensor_type;location;lat;lon;timestamp;temperature;humidity
1181;DHT22;579;52.046;8.532;2022-08-30T00:01:06;18.20;1.00
1181;DHT22;579;52.046;8.532;2022-08-30T00:03:35;18.00;1.00
1181;DHT22;579;52.046;8.532;2022-08-30T00:06:02;17.90;1.00
1181;DHT22;579;52.046;8.532;2022-08-30T00:08:30;17.90;1.00
1181;DHT22;579;52.046;8.532;2022-08-30T00:10:57;18.00;1.00
1181;DHT22;579;52.046;8.532;2022-08-30T00:13:23;18.00;1.00
1181;DHT22;579;52.046;8.532;2022-08-30T00:20:38;18.20;1.00
1181;DHT22;579;52.046;8.532;2022-08-30T00:23:05;18.10;1.00
1181;DHT22;579;52.046;8.532;2022-08-30T00:25:31;17.90;1.00
1181;DHT22;579;52.046;8.532;2022-08-30T00:27:58;18.00;1.00
1181;DHT22;579;52.046;8.532;2022-08-30T00:30:25;17.80;1.00
1181;DHT22;579;52.046;8.532;2022-08-30T00:32:51;17.90;1.00
1181;DHT22;579;52.046;8.532;2022-08-30T00:35:18;18.10;1.00
1181;DHT22;579;52.046;8.532;2022-08-30T00:41:07;17.80;1.00
1181;DHT22;579;52.046;8.532;2022-08-30T00:43:34;17.60;1.00
1181;DHT22;579;52.046;8.532;2022-08-30T00:46:01;17.90;1.00
1181;DHT22;579;52.046;8.532;2022-08-30T00:48:29;17.90;1.00
1181;DHT22;579;52.046;8.532;2022-08-30T00:50:58;18.20;1.00
1181;DHT22;579;52.046;8.532;2022-08-30T00:53:28;18.00;1.00
1181;DHT22;579;52.046;8.532;2022-08-30T00:59:21;17.80;1.00
1181;DHT22;579;52.046;8.532;2022-08-30T01:01:49;17.80;1.00
1181;DHT22;579;52.046;8.532;2022-08-30T01:04:16;17.80;1.00
1181;DHT22;579;52.046;8.532;2022-08-30T01:06:46;17.70;1.00
1181;DHT22;579;52.046;8.532;2022-08-30T01:09:13;17.90;1.00
1181;DHT22;579;52.046;8.532;2022-08-30T01:11:41;18.30;1.00
1181;DHT22;579;52.046;8.532;2022-08-30T01:14:08;18.00;1.00
1181;DHT22;579;52.046;8.532;2022-08-30T01:21:15;17.90;1.00
1181;DHT22;579;52.046;8.532;2022-08-30T01:23:47;18.20;1.00
1181;DHT22;579;52.046;8.532;2022-08-30T01:26:16;18.20;1.00
1181;DHT22;579;52.046;8.532;2022-08-30T01:28:45;18.10;1.00
1181;DHT22;579;52.046;8.532;2022-08-30T01:31:13;18.30;1.00
1181;DHT22;579;52.046;8.532;2022-08-30T01:33:40;18.30;1.00
1181;DHT22;579;52.046;8.532;2022-08-30T01:36:11;18.20;1.00
1181;DHT22;579;52.046;8.532;2022-08-30T01:41:17;18.00;1.00
1181;DHT22;579;52.046;8.532;2022-08-30T01:43:46;17.90;1.00
1181;DHT22;579;52.046;8.532;2022-08-30T01:46:14;18.30;1.00
1181;DHT22;579;52.046;8.532;2022-08-30T01:48:43;18.30;1.00
1181;DHT22;579;52.046;8.532;2022-08-30T01:51:11;18.00;1.00
1181;DHT22;579;52.046;8.532;2022-08-30T01:53:39;17.90;1.00
1181;DHT22;579;52.046;8.532;2022-08-30T01:56:06;18.00;1.00
1181;DHT22;579;52.046;8.532;2022-08-30T02:02:37;17.90;1.00
1181;DHT22;579;52.046;8.532;2022-08-30T02:05:04;17.80;1.00
1181;DHT22;579;52.046;8.532;2022-08-30T02:07:31;17.60;1.00
1181;DHT22;579;52.046;8.532;2022-08-30T02:09:58;17.60;1.00
1181;DHT22;579;52.046;8.532;2022-08-30T02:12:24;17.70;1.00
1181;DHT22;579;52.046;8.532;2022-08-30T02:14:50;17.60;1.00
1181;DHT22;579;52.046;8.532;2022-08-30T02:17:17;17.70;1.00
1181;DHT22;579;52.046;8.532;2022-08-30T02:23:39;17.60;1.00
1181;DHT22;579;52.046;8.532;2022-08-30T02:26:06;17.60;1.00
1181;DHT22;579;52.046;8.532;2022-08-30T02:28:33;17.60;1.00
1181;DHT22;579;52.046;8.532;2022-08-30T02:31:00;17.40;1.00
1181;DHT22;579;52.046;8.532;2022-08-30T02:33:26;17.60;1.00
1181;DHT22;579;52.046;8.532;2022-08-30T02:35:53;17.40;1.00
1181;DHT22;579;52.046;8.532;2022-08-30T02:38:20;17.20;1.00
1181;DHT22;579;52.046;8.532;2022-08-30T02:45:37;17.60;1.00
1181;DHT22;579;52.046;8.532;2022-08-30T02:48:04;17.50;1.00
1181;DHT22;579;52.046;8.532;2022-08-30T02:50:30;17.40;1.00
1181;DHT22;579;52.046;8.532;2022-08-30T02:52:56;17.40;1.00
1181;DHT22;579;52.046;8.532;2022-08-30T02:55:23;17.20;1.00
1181;DHT22;579;52.046;8.532;2022-08-30T02:57:49;17.40;1.00
1181;DHT22;579;52.046;8.532;2022-08-30T03:00:17;17.30;1.00
1181;DHT22;579;52.046;8.532;2022-08-30T03:05:24;17.40;1.00
1181;DHT22;579;52.046;8.532;2022-08-30T03:07:50;17.40;1.00
1181;DHT22;579;52.046;8.532;2022-08-30T03:10:17;17.40;1.00
1181;DHT22;579;52.046;8.532;2022-08-30T03:12:44;17.30;1.00
1181;DHT22;579;52.046;8.532;2022-08-30T03:15:13;17.40;1.00
1181;DHT22;579;52.046;8.532;2022-08-30T03:17:40;17.50;1.00
1181;DHT22;579;52.046;8.532;2022-08-30T03:20:08;17.40;1.00
1181;DHT22;579;52.046;8.532;2022-08-30T03:25:15;17.50;1.00
1181;DHT22;579;52.046;8.532;2022-08-30T03:27:41;17.70;1.00
1181;DHT22;579;52.046;8.532;2022-08-30T03:30:09;17.60;1.00
1181;DHT22;579;52.046;8.532;2022-08-30T03:32:36;17.60;1.00
1181;DHT22;579;52.046;8.532;2022-08-30T03:35:03;17.40;1.00
1181;DHT22;579;52.046;8.532;2022-08-30T03:37:30;17.50;1.00
1181;DHT22;579;52.046;8.532;2022-08-30T03:39:56;17.50;1.00
1181;DHT22;579;52.046;8.532;2022-08-30T03:45:01;17.40;1.00
1181;DHT22;579;52.046;8.532;2022-08-30T03:47:29;17.40;1.00
1181;DHT22;579;52.046;8.532;2022-08-30T03:49:55;17.50;1.00
1181;DHT22;579;52.046;8.532;2022-08-30T03:52:22;17.50;1.00
1181;DHT22;579;52.046;8.532;2022-08-30T03:54:48;17.40;1.00
1181;DHT22;579;52.046;8.532;2022-08-30T03:57:14;17.40;1.00
1181;DHT22;579;52.046;8.532;2022-08-30T03:59:41;17.50;1.00
1181;DHT22;579;52.046;8.532;2022-08-30T04:07:11;17.70;1.00
1181;DHT22;579;52.046;8.532;2022-08-30T04:09:38;17.70;1.00
1181;DHT22;579;52.046;8.532;2022-08-30T04:12:04;17.60;1.00
1181;DHT22;579;52.046;8.532;2022-08-30T04:14:31;17.50;1.00
1181;DHT22;579;52.046;8.532;2022-08-30T04:16:58;17.50;1.00
1181;DHT22;579;52.046;8.532;2022-08-30T04:19:24;17.50;1.00
1181;DHT22;579;52.046;8.532;2022-08-30T04:21:50;17.40;1.00
1181;DHT22;579;52.046;8.532;2022-08-30T04:28:36;17.70;1.00
1181;DHT22;579;52.046;8.532;2022-08-30T04:31:07;17.80;1.00
1181;DHT22;579;52.046;8.532;2022-08-30T04:33:33;18.00;1.00
1181;DHT22;579;52.046;8.532;2022-08-30T04:36:02;17.70;1.00
1181;DHT22;579;52.046;8.532;2022-08-30T04:38:30;17.80;1.00
1181;DHT22;579;52.046;8.532;2022-08-30T04:40:57;17.80;1.00
1181;DHT22;579;52.046;8.532;2022-08-30T04:43:25;17.60;1.00
1181;DHT22;579;52.046;8.532;2022-08-30T04:50:37;17.50;1.00
1181;DHT22;579;52.046;8.532;2022-08-30T04:53:03;17.70;1.00
1181;DHT22;579;52.046;8.532;2022-08-30T04:55:30;17.50;1.00
1181;DHT22;579;52.046;8.532;2022-08-30T04:57:56;17.40;1.00
1181;DHT22;579;52.046;8.532;2022-08-30T05:00:23;17.30;1.00
1181;DHT22;579;52.046;8.532;2022-08-30T05:02:49;17.30;1.00
1181;DHT22;579;52.046;8.532;2022-08-30T05:05:16;17.40;1.00
1181;DHT22;579;52.046;8.532;2022-08-30T05:10:09;17.30;1.00
1181;DHT22;579;52.046;8.532;2022-08-30T05:12:36;17.40;1.00
1181;DHT22;579;52.046;8.532;2022-08-30T05:15:03;17.30;1.00
1181;DHT22;579;52.046;8.532;2022-08-30T05:17:31;17.30;1.00
1181;DHT22;579;52.046;8.532;2022-08-30T05:20:00;17.30;1.00
1181;DHT22;579;52.046;8.532;2022-08-30T05:22:27;17.30;1.00
1181;DHT22;579;52.046;8.532;2022-08-30T05:24:53;17.40;1.00
1181;DHT22;579;52.046;8.532;2022-08-30T05:29:58;17.40;1.00
1181;DHT22;579;52.046;8.532;2022-08-30T05:32:25;17.50;1.00
1181;DHT22;579;52.046;8.532;2022-08-30T05:34:52;17.60;1.00
1181;DHT22;579;52.046;8.532;2022-08-30T05:37:19;17.70;1.00
1181;DHT22;579;52.046;8.532;2022-08-30T05:39:46;17.70;1.00
1181;DHT22;579;52.046;8.532;2022-08-30T05:42:13;17.60;1.00
1181;DHT22;579;52.046;8.532;2022-08-30T05:44:39;17.80;1.00
1181;DHT22;579;52.046;8.532;2022-08-30T05:49:46;17.80;1.00
1181;DHT22;579;52.046;8.532;2022-08-30T05:52:14;18.10;1.00
1181;DHT22;579;52.046;8.532;2022-08-30T05:54:42;18.20;1.00
1181;DHT22;579;52.046;8.532;2022-08-30T05:57:09;18.20;1.00
1181;DHT22;579;52.046;8.532;2022-08-30T05:59:36;18.40;1.00
1181;DHT22;579;52.046;8.532;2022-08-30T06:02:03;18.40;1.00
1181;DHT22;579;52.046;8.532;2022-08-30T06:04:30;18.50;1.00
1181;DHT22;579;52.046;8.532;2022-08-30T06:10:38;18.40;1.00
1181;DHT22;579;52.046;8.532;2022-08-30T06:13:04;18.60;1.00
1181;DHT22;579;52.046;8.532;2022-08-30T06:15:31;18.90;1.00
1181;DHT22;579;52.046;8.532;2022-08-30T06:17:58;19.00;1.00
1181;DHT22;579;52.046;8.532;2022-08-30T06:20:25;18.70;1.00
1181;DHT22;579;52.046;8.532;2022-08-30T06:22:51;18.60;1.00
1181;DHT22;579;52.046;8.532;2022-08-30T06:25:19;18.80;1.00
1181;DHT22;579;52.046;8.532;2022-08-30T06:30:27;18.70;1.00
1181;DHT22;579;52.046;8.532;2022-08-30T06:32:56;18.80;1.00
1181;DHT22;579;52.046;8.532;2022-08-30T06:35:23;19.00;1.00
1181;DHT22;579;52.046;8.532;2022-08-30T06:37:50;19.00;1.00
1181;DHT22;579;52.046;8.532;2022-08-30T06:40:17;19.10;1.00
1181;DHT22;579;52.046;8.532;2022-08-30T06:42:46;19.10;1.00
1181;DHT22;579;52.046;8.532;2022-08-30T06:45:13;19.20;1.00
1181;DHT22;579;52.046;8.532;2022-08-30T06:50:18;19.40;1.00
1181;DHT22;579;52.046;8.532;2022-08-30T06:52:45;19.20;1.00
1181;DHT22;579;52.046;8.532;2022-08-30T06:55:14;19.20;1.00
1181;DHT22;579;52.046;8.532;2022-08-30T06:57:41;19.60;1.00
1181;DHT22;579;52.046;8.532;2022-08-30T07:00:11;19.60;1.00
1181;DHT22;579;52.046;8.532;2022-08-30T07:02:39;19.80;1.00
1181;DHT22;579;52.046;8.532;2022-08-30T07:05:07;19.90;1.00
1181;DHT22;579;52.046;8.532;2022-08-30T07:10:13;19.90;1.00
1181;DHT22;579;52.046;8.532;2022-08-30T07:12:41;20.00;1.00
1181;DHT22;579;52.046;8.532;2022-08-30T07:15:08;19.90;1.00
1181;DHT22;579;52.046;8.532;2022-08-30T07:17:35;20.00;1.00
1181;DHT22;579;52.046;8.532;2022-08-30T07:20:26;20.10;1.00
1181;DHT22;579;52.046;8.532;2022-08-30T07:22:52;20.10;1.00
1181;DHT22;579;52.046;8.532;2022-08-30T07:30:09;20.00;1.00
1181;DHT22;579;52.046;8.532;2022-08-30T07:32:37;20.00;1.00
1181;DHT22;579;52.046;8.532;2022-08-30T07:35:04;19.90;1.00
1181;DHT22;579;52.046;8.532;2022-08-30T07:37:31;20.00;1.00
1181;DHT22;579;52.046;8.532;2022-08-30T07:39:58;20.30;1.00
1181;DHT22;579;52.046;8.532;2022-08-30T07:42:25;20.50;1.00
1181;DHT22;579;52.046;8.532;2022-08-30T07:44:52;20.70;1.00
1181;DHT22;579;52.046;8.532;2022-08-30T07:49:54;20.80;1.00
1181;DHT22;579;52.046;8.532;2022-08-30T07:52:21;20.80;1.00
1181;DHT22;579;52.046;8.532;2022-08-30T07:54:47;20.70;1.00
1181;DHT22;579;52.046;8.532;2022-08-30T07:57:14;20.80;1.00
1181;DHT22;579;52.046;8.532;2022-08-30T07:59:40;21.00;1.00
1181;DHT22;579;52.046;8.532;2022-08-30T08:02:07;20.80;1.00
1181;DHT22;579;52.046;8.532;2022-08-30T08:04:34;20.90;1.00
1181;DHT22;579;52.046;8.532;2022-08-30T08:09:40;21.10;1.00
1181;DHT22;579;52.046;8.532;2022-08-30T08:12:08;21.30;1.00
1181;DHT22;579;52.046;8.532;2022-08-30T08:14:35;21.40;1.00
1181;DHT22;579;52.046;8.532;2022-08-30T08:17:01;21.60;1.00
1181;DHT22;579;52.046;8.532;2022-08-30T08:19:29;21.70;1.00
1181;DHT22;579;52.046;8.532;2022-08-30T08:21:56;21.80;1.00
1181;DHT22;579;52.046;8.532;2022-08-30T08:24:25;22.10;1.00
1181;DHT22;579;52.046;8.532;2022-08-30T08:29:09;22.40;1.00
1181;DHT22;579;52.046;8.532;2022-08-30T08:31:36;22.60;1.00
1181;DHT22;579;52.046;8.532;2022-08-30T08:34:04;22.40;1.00
1181;DHT22;579;52.046;8.532;2022-08-30T08:36:31;22.80;1.00
1181;DHT22;579;52.046;8.532;2022-08-30T08:38:59;23.00;1.00
1181;DHT22;579;52.046;8.532;2022-08-30T08:41:35;23.20;1.00
1181;DHT22;579;52.046;8.532;2022-08-30T08:47:02;23.60;1.00
1181;DHT22;579;52.046;8.532;2022-08-30T08:49:37;23.60;1.00
1181;DHT22;579;52.046;8.532;2022-08-30T08:52:06;23.70;1.00
1181;DHT22;579;52.046;8.532;2022-08-30T08:54:58;23.80;1.00
1181;DHT22;579;52.046;8.532;2022-08-30T08:57:33;23.90;1.00
1181;DHT22;579;52.046;8.532;2022-08-30T09:00:03;24.00;1.00
1181;DHT22;579;52.046;8.532;2022-08-30T09:06:51;23.90;1.00
1181;DHT22;579;52.046;8.532;2022-08-30T09:09:23;24.40;1.00
1181;DHT22;579;52.046;8.532;2022-08-30T09:11:53;24.60;1.00
1181;DHT22;579;52.046;8.532;2022-08-30T09:14:22;24.80;1.00
1181;DHT22;579;52.046;8.532;2022-08-30T09:16:56;25.00;1.00
1181;DHT22;579;52.046;8.532;2022-08-30T09:19:35;25.00;1.00
1181;DHT22;579;52.046;8.532;2022-08-30T09:26:12;25.20;1.00
1181;DHT22;579;52.046;8.532;2022-08-30T09:28:44;25.40;1.00
1181;DHT22;579;52.046;8.532;2022-08-30T09:31:17;25.40;1.00
1181;DHT22;579;52.046;8.532;2022-08-30T09:33:53;25.50;1.00
1181;DHT22;579;52.046;8.532;2022-08-30T09:36:23;25.80;1.00
1181;DHT22;579;52.046;8.532;2022-08-30T09:38:57;25.90;1.00
1181;DHT22;579;52.046;8.532;2022-08-30T09:46:10;26.30;1.00
1181;DHT22;579;52.046;8.532;2022-08-30T09:48:39;26.50;1.00
1181;DHT22;579;52.046;8.532;2022-08-30T09:51:35;26.60;1.00
1181;DHT22;579;52.046;8.532;2022-08-30T09:54:15;26.70;1.00
1181;DHT22;579;52.046;8.532;2022-08-30T09:56:54;26.80;1.00
1181;DHT22;579;52.046;8.532;2022-08-30T09:59:45;26.80;1.00
1181;DHT22;579;52.046;8.532;2022-08-30T10:05:13;27.10;1.00
1181;DHT22;579;52.046;8.532;2022-08-30T10:07:51;27.20;1.00
1181;DHT22;579;52.046;8.532;2022-08-30T10:10:30;27.20;1.00
1181;DHT22;579;52.046;8.532;2022-08-30T10:13:09;27.30;1.00
1181;DHT22;579;52.046;8.532;2022-08-30T10:15:50;27.20;1.00
1181;DHT22;579;52.046;8.532;2022-08-30T10:18:26;27.10;1.00
1181;DHT22;579;52.046;8.532;2022-08-30T10:25:15;26.80;1.00
1181;DHT22;579;52.046;8.532;2022-08-30T10:27:46;26.90;1.00
1181;DHT22;579;52.046;8.532;2022-08-30T10:30:16;26.70;1.00
1181;DHT22;579;52.046;8.532;2022-08-30T10:32:47;26.50;1.00
1181;DHT22;579;52.046;8.532;2022-08-30T10:35:19;25.90;1.00
1181;DHT22;579;52.046;8.532;2022-08-30T10:37:50;25.70;1.00
1181;DHT22;579;52.046;8.532;2022-08-30T10:43:03;25.60;1.00
1181;DHT22;579;52.046;8.532;2022-08-30T10:45:36;25.30;1.00
1181;DHT22;579;52.046;8.532;2022-08-30T10:48:10;25.20;1.00
1181;DHT22;579;52.046;8.532;2022-08-30T10:50:44;25.40;1.00
1181;DHT22;579;52.046;8.532;2022-08-30T10:53:16;25.50;1.00
1181;DHT22;579;52.046;8.532;2022-08-30T10:55:49;25.50;1.00
1181;DHT22;579;52.046;8.532;2022-08-30T11:01:09;25.70;1.00
1181;DHT22;579;52.046;8.532;2022-08-30T11:04:01;25.40;1.00
1181;DHT22;579;52.046;8.532;2022-08-30T11:07:12;25.60;1.00
1181;DHT22;579;52.046;8.532;2022-08-30T11:10:22;26.00;1.00
1181;DHT22;579;52.046;8.532;2022-08-30T11:12:58;25.90;1.00
1181;DHT22;579;52.046;8.532;2022-08-30T11:15:29;26.00;1.00
1181;DHT22;579;52.046;8.532;2022-08-30T11:18:45;26.20;1.00
1181;DHT22;579;52.046;8.532;2022-08-30T11:21:20;25.90;1.00
1181;DHT22;579;52.046;8.532;2022-08-30T11:24:01;25.60;1.00
1181;DHT22;579;52.046;8.532;2022-08-30T11:29:35;25.90;1.00
1181;DHT22;579;52.046;8.532;2022-08-30T11:32:23;26.00;1.00
1181;DHT22;579;52.046;8.532;2022-08-30T11:37:37;26.60;1.00
1181;DHT22;579;52.046;8.532;2022-08-30T11:40:08;26.40;1.00
1181;DHT22;579;52.046;8.532;2022-08-30T11:42:39;26.70;1.00
1181;DHT22;579;52.046;8.532;2022-08-30T11:45:41;26.50;1.00
1181;DHT22;579;52.046;8.532;2022-08-30T11:48:41;26.70;1.00
1181;DHT22;579;52.046;8.532;2022-08-30T11:51:31;26.80;1.00
1181;DHT22;579;52.046;8.532;2022-08-30T11:57:08;26.60;1.00
1181;DHT22;579;52.046;8.532;2022-08-30T11:59:49;26.70;1.00
1181;DHT22;579;52.046;8.532;2022-08-30T12:02:45;26.40;1.00
1181;DHT22;579;52.046;8.532;2022-08-30T12:05:52;26.00;1.00
1181;DHT22;579;52.046;8.532;2022-08-30T12:08:47;25.90;1.00
1181;DHT22;579;52.046;8.532;2022-08-30T12:14:32;26.50;1.00
1181;DHT22;579;52.046;8.532;2022-08-30T12:17:47;26.80;1.00
1181;DHT22;579;52.046;8.532;2022-08-30T12:20:40;27.00;1.00
1181;DHT22;579;52.046;8.532;2022-08-30T12:23:19;27.00;1.00
1181;DHT22;579;52.046;8.532;2022-08-30T12:25:46;26.70;1.00
1181;DHT22;579;52.046;8.532;2022-08-30T12:28:20;26.90;1.00
1181;DHT22;579;52.046;8.532;2022-08-30T12:31:14;26.70;1.00
1181;DHT22;579;52.046;8.532;2022-08-30T12:33:44;26.50;1.00
1181;DHT22;579;52.046;8.532;2022-08-30T12:36:15;26.60;1.00
1181;DHT22;579;52.046;8.532;2022-08-30T12:39:11;26.70;1.00
1181;DHT22;579;52.046;8.532;2022-08-30T12:41:41;26.80;1.00
1181;DHT22;579;52.046;8.532;2022-08-30T12:44:13;27.10;1.00
1181;DHT22;579;52.046;8.532;2022-08-30T12:50:46;27.20;1.00
1181;DHT22;579;52.046;8.532;2022-08-30T12:53:25;27.60;1.00
1181;DHT22;579;52.046;8.532;2022-08-30T12:55:54;27.70;1.00
1181;DHT22;579;52.046;8.532;2022-08-30T12:58:39;27.70;1.00
1181;DHT22;579;52.046;8.532;2022-08-30T13:01:24;27.60;1.00
1181;DHT22;579;52.046;8.532;2022-08-30T13:03:57;27.80;1.00
1181;DHT22;579;52.046;8.532;2022-08-30T13:09:21;27.70;1.00
1181;DHT22;579;52.046;8.532;2022-08-30T13:11:52;27.40;1.00
1181;DHT22;579;52.046;8.532;2022-08-30T13:14:29;27.50;1.00
1181;DHT22;579;52.046;8.532;2022-08-30T13:17:10;27.70;1.00
1181;DHT22;579;52.046;8.532;2022-08-30T13:19:55;27.70;1.00
1181;DHT22;579;52.046;8.532;2022-08-30T13:22:29;27.70;1.00
1181;DHT22;579;52.046;8.532;2022-08-30T13:28:45;28.10;1.00
1181;DHT22;579;52.046;8.532;2022-08-30T13:31:13;28.20;1.00
1181;DHT22;579;52.046;8.532;2022-08-30T13:33:39;28.20;1.00
1181;DHT22;579;52.046;8.532;2022-08-30T13:36:06;28.50;1.00
1181;DHT22;579;52.046;8.532;2022-08-30T13:38:33;28.20;1.00
1181;DHT22;579;52.046;8.532;2022-08-30T13:41:00;28.20;1.00
1181;DHT22;579;52.046;8.532;2022-08-30T13:43:27;28.40;1.00
1181;DHT22;579;52.046;8.532;2022-08-30T13:48:11;28.50;1.00
1181;DHT22;579;52.046;8.532;2022-08-30T13:50:39;28.40;1.00
1181;DHT22;579;52.046;8.532;2022-08-30T13:53:07;28.10;1.00
1181;DHT22;579;52.046;8.532;2022-08-30T13:55:35;27.90;1.00
1181;DHT22;579;52.046;8.532;2022-08-30T13:58:02;27.90;1.00
1181;DHT22;579;52.046;8.532;2022-08-30T14:00:29;27.80;1.00
1181;DHT22;579;52.046;8.532;2022-08-30T14:02:56;28.00;1.00
1181;DHT22;579;52.046;8.532;2022-08-30T14:08:01;28.20;1.00
1181;DHT22;579;52.046;8.532;2022-08-30T14:10:32;28.30;1.00
1181;DHT22;579;52.046;8.532;2022-08-30T14:13:00;28.30;1.00
1181;DHT22;579;52.046;8.532;2022-08-30T14:15:26;28.40;1.00
1181;DHT22;579;52.046;8.532;2022-08-30T14:17:53;28.20;1.00
1181;DHT22;579;52.046;8.532;2022-08-30T14:20:19;28.20;1.00
1181;DHT22;579;52.046;8.532;2022-08-30T14:22:46;28.50;1.00
1181;DHT22;579;52.046;8.532;2022-08-30T14:27:50;28.90;1.00
1181;DHT22;579;52.046;8.532;2022-08-30T14:30:17;29.40;1.00
1181;DHT22;579;52.046;8.532;2022-08-30T14:32:43;29.50;1.00
1181;DHT22;579;52.046;8.532;2022-08-30T14:35:12;29.40;1.00
1181;DHT22;579;52.046;8.532;2022-08-30T14:37:43;29.60;1.00
1181;DHT22;579;52.046;8.532;2022-08-30T14:40:13;30.10;1.00
1181;DHT22;579;52.046;8.532;2022-08-30T14:42:41;30.70;1.00
1181;DHT22;579;52.046;8.532;2022-08-30T14:47:46;31.10;1.00
1181;DHT22;579;52.046;8.532;2022-08-30T14:50:15;31.60;1.00
1181;DHT22;579;52.046;8.532;2022-08-30T14:52:42;33.10;1.00
1181;DHT22;579;52.046;8.532;2022-08-30T14:55:10;34.60;1.00
1181;DHT22;579;52.046;8.532;2022-08-30T14:57:38;35.80;1.00
1181;DHT22;579;52.046;8.532;2022-08-30T15:00:07;36.80;1.00
1181;DHT22;579;52.046;8.532;2022-08-30T15:02:36;37.90;1.00
1181;DHT22;579;52.046;8.532;2022-08-30T15:09:14;39.10;1.00
1181;DHT22;579;52.046;8.532;2022-08-30T15:11:43;39.70;1.00
1181;DHT22;579;52.046;8.532;2022-08-30T15:14:10;39.80;1.00
1181;DHT22;579;52.046;8.532;2022-08-30T15:16:38;40.20;1.00
1181;DHT22;579;52.046;8.532;2022-08-30T15:19:07;39.90;1.00
1181;DHT22;579;52.046;8.532;2022-08-30T15:21:37;39.60;1.00
1181;DHT22;579;52.046;8.532;2022-08-30T15:24:07;39.80;1.00
1181;DHT22;579;52.046;8.532;2022-08-30T15:29:20;39.60;1.00
1181;DHT22;579;52.046;8.532;2022-08-30T15:31:48;39.20;1.00
1181;DHT22;579;52.046;8.532;2022-08-30T15:34:17;38.70;1.00
1181;DHT22;579;52.046;8.532;2022-08-30T15:36:45;39.00;1.00
1181;DHT22;579;52.046;8.532;2022-08-30T15:39:13;38.90;1.00
1181;DHT22;579;52.046;8.532;2022-08-30T15:41:41;38.00;1.00
1181;DHT22;579;52.046;8.532;2022-08-30T15:44:08;36.90;1.00
1181;DHT22;579;52.046;8.532;2022-08-30T15:50:18;33.80;1.00
1181;DHT22;579;52.046;8.532;2022-08-30T15:52:45;33.10;1.00
1181;DHT22;579;52.046;8.532;2022-08-30T15:55:11;32.60;1.00
1181;DHT22;579;52.046;8.532;2022-08-30T15:57:38;31.70;1.00
1181;DHT22;579;52.046;8.532;2022-08-30T16:00:06;31.00;1.00
1181;DHT22;579;52.046;8.532;2022-08-30T16:02:34;30.60;1.00
1181;DHT22;579;52.046;8.532;2022-08-30T16:08:02;29.90;1.00
1181;DHT22;579;52.046;8.532;2022-08-30T16:10:31;29.50;1.00
1181;DHT22;579;52.046;8.532;2022-08-30T16:12:58;29.40;1.00
1181;DHT22;579;52.046;8.532;2022-08-30T16:15:26;29.00;1.00
1181;DHT22;579;52.046;8.532;2022-08-30T16:17:52;28.80;1.00
1181;DHT22;579;52.046;8.532;2022-08-30T16:20:19;28.60;1.00
1181;DHT22;579;52.046;8.532;2022-08-30T16:22:48;28.50;1.00
1181;DHT22;579;52.046;8.532;2022-08-30T16:27:55;28.10;1.00
1181;DHT22;579;52.046;8.532;2022-08-30T16:30:22;27.90;1.00
1181;DHT22;579;52.046;8.532;2022-08-30T16:32:49;28.10;1.00
1181;DHT22;579;52.046;8.532;2022-08-30T16:35:15;28.00;1.00
1181;DHT22;579;52.046;8.532;2022-08-30T16:37:42;28.00;1.00
1181;DHT22;579;52.046;8.532;2022-08-30T16:40:09;27.80;1.00
1181;DHT22;579;52.046;8.532;2022-08-30T16:42:36;27.50;1.00
1181;DHT22;579;52.046;8.532;2022-08-30T16:47:41;27.20;1.00
1181;DHT22;579;52.046;8.532;2022-08-30T16:50:09;27.10;1.00
1181;DHT22;579;52.046;8.532;2022-08-30T16:52:37;27.10;1.00
1181;DHT22;579;52.046;8.532;2022-08-30T16:55:05;27.10;1.00
1181;DHT22;579;52.046;8.532;2022-08-30T16:57:32;27.00;1.00
1181;DHT22;579;52.046;8.532;2022-08-30T16:59:58;26.90;1.00
1181;DHT22;579;52.046;8.532;2022-08-30T17:02:26;26.90;1.00
1181;DHT22;579;52.046;8.532;2022-08-30T17:07:33;26.40;1.00
1181;DHT22;579;52.046;8.532;2022-08-30T17:09:59;26.40;1.00
1181;DHT22;579;52.046;8.532;2022-08-30T17:12:28;26.60;1.00
1181;DHT22;579;52.046;8.532;2022-08-30T17:14:55;26.50;1.00
1181;DHT22;579;52.046;8.532;2022-08-30T17:17:22;26.70;1.00
1181;DHT22;579;52.046;8.532;2022-08-30T17:19:49;26.40;1.00
1181;DHT22;579;52.046;8.532;2022-08-30T17:22:16;26.30;1.00
1181;DHT22;579;52.046;8.532;2022-08-30T17:27:19;26.20;1.00
1181;DHT22;579;52.046;8.532;2022-08-30T17:29:45;26.00;1.00
1181;DHT22;579;52.046;8.532;2022-08-30T17:32:12;25.80;1.00
1181;DHT22;579;52.046;8.532;2022-08-30T17:34:39;25.70;1.00
1181;DHT22;579;52.046;8.532;2022-08-30T17:37:06;25.60;1.00
1181;DHT22;579;52.046;8.532;2022-08-30T17:39:36;25.40;1.00
1181;DHT22;579;52.046;8.532;2022-08-30T17:42:03;25.20;1.00
1181;DHT22;579;52.046;8.532;2022-08-30T17:47:11;24.80;1.00
1181;DHT22;579;52.046;8.532;2022-08-30T17:49:37;24.70;1.00
1181;DHT22;579;52.046;8.532;2022-08-30T17:52:04;24.60;1.00
1181;DHT22;579;52.046;8.532;2022-08-30T17:54:32;24.40;1.00
1181;DHT22;579;52.046;8.532;2022-08-30T17:56:59;24.30;1.00
1181;DHT22;579;52.046;8.532;2022-08-30T17:59:25;24.20;1.00
1181;DHT22;579;52.046;8.532;2022-08-30T18:01:53;24.10;1.00
1181;DHT22;579;52.046;8.532;2022-08-30T18:07:05;23.80;1.00
1181;DHT22;579;52.046;8.532;2022-08-30T18:09:32;23.60;1.00
1181;DHT22;579;52.046;8.532;2022-08-30T18:11:58;23.60;1.00
1181;DHT22;579;52.046;8.532;2022-08-30T18:14:25;23.50;1.00
1181;DHT22;579;52.046;8.532;2022-08-30T18:16:51;23.40;1.00
1181;DHT22;579;52.046;8.532;2022-08-30T18:19:17;23.10;1.00
1181;DHT22;579;52.046;8.532;2022-08-30T18:21:44;23.00;1.00
1181;DHT22;579;52.046;8.532;2022-08-30T18:26:49;22.80;1.00
1181;DHT22;579;52.046;8.532;2022-08-30T18:29:15;22.70;1.00
1181;DHT22;579;52.046;8.532;2022-08-30T18:31:42;22.60;1.00
1181;DHT22;579;52.046;8.532;2022-08-30T18:34:08;22.40;1.00
1181;DHT22;579;52.046;8.532;2022-08-30T18:36:35;22.40;1.00
1181;DHT22;579;52.046;8.532;2022-08-30T18:39:01;22.30;1.00
1181;DHT22;579;52.046;8.532;2022-08-30T18:41:28;22.20;1.00
1181;DHT22;579;52.046;8.532;2022-08-30T18:48:11;21.80;1.00
1181;DHT22;579;52.046;8.532;2022-08-30T18:50:39;21.80;1.00
1181;DHT22;579;52.046;8.532;2022-08-30T18:53:06;21.70;1.00
1181;DHT22;579;52.046;8.532;2022-08-30T18:55:33;21.50;1.00
1181;DHT22;579;52.046;8.532;2022-08-30T18:57:59;21.50;1.00
1181;DHT22;579;52.046;8.532;2022-08-30T19:00:26;21.50;1.00
1181;DHT22;579;52.046;8.532;2022-08-30T19:02:54;21.40;1.00
1181;DHT22;579;52.046;8.532;2022-08-30T19:08:00;21.30;1.00
1181;DHT22;579;52.046;8.532;2022-08-30T19:10:28;21.20;1.00
1181;DHT22;579;52.046;8.532;2022-08-30T19:12:55;21.10;1.00
1181;DHT22;579;52.046;8.532;2022-08-30T19:15:25;21.10;1.00
1181;DHT22;579;52.046;8.532;2022-08-30T19:17:52;21.10;1.00
1181;DHT22;579;52.046;8.532;2022-08-30T19:20:21;21.00;1.00
1181;DHT22;579;52.046;8.532;2022-08-30T19:25:40;20.90;1.00
1181;DHT22;579;52.046;8.532;2022-08-30T19:28:07;20.80;1.00
1181;DHT22;579;52.046;8.532;2022-08-30T19:30:34;20.80;1.00
1181;DHT22;579;52.046;8.532;2022-08-30T19:33:01;20.80;1.00
1181;DHT22;579;52.046;8.532;2022-08-30T19:35:27;20.80;1.00
1181;DHT22;579;52.046;8.532;2022-08-30T19:37:54;20.80;1.00
1181;DHT22;579;52.046;8.532;2022-08-30T19:40:20;20.70;1.00
1181;DHT22;579;52.046;8.532;2022-08-30T19:47:10;20.80;1.00
1181;DHT22;579;52.046;8.532;2022-08-30T19:49:37;20.80;1.00
1181;DHT22;579;52.046;8.532;2022-08-30T19:52:04;20.90;1.00
1181;DHT22;579;52.046;8.532;2022-08-30T19:54:30;21.00;1.00
1181;DHT22;579;52.046;8.532;2022-08-30T19:56:56;20.80;1.00
1181;DHT22;579;52.046;8.532;2022-08-30T19:59:23;20.90;1.00
1181;DHT22;579;52.046;8.532;2022-08-30T20:01:50;21.00;1.00
1181;DHT22;579;52.046;8.532;2022-08-30T20:06:59;21.00;1.00